createdAt,value
2023-10-23T00:02:16.879Z,2.53
2023-10-23T00:04:45.034Z,2.43
2023-10-23T00:07:12.919Z,2.40
2023-10-23T00:09:40.808Z,2.57
2023-10-23T00:12:10.107Z,2.60
2023-10-23T00:14:38.477Z,1.97
2023-10-23T00:17:07.889Z,2.03
2023-10-23T00:19:35.721Z,2.10
2023-10-23T00:22:03.645Z,2.27
2023-10-23T00:24:31.494Z,2.67
2023-10-23T00:26:59.515Z,2.23
2023-10-23T00:29:27.467Z,2.40
2023-10-23T00:31:55.354Z,4.17
2023-10-23T00:34:24.587Z,2.23
2023-10-23T00:36:52.887Z,2.30
2023-10-23T00:39:20.799Z,2.20
2023-10-23T00:41:48.733Z,2.00
2023-10-23T00:44:16.620Z,2.00
2023-10-23T00:46:45.520Z,2.20
2023-10-23T00:49:13.612Z,2.33
2023-10-23T00:51:43.010Z,2.17
2023-10-23T00:54:11.292Z,2.10
2023-10-23T00:56:39.568Z,2.27
2023-10-23T00:59:07.533Z,3.40
2023-10-23T01:01:36.374Z,1.83
2023-10-23T01:04:05.648Z,2.40
2023-10-23T01:06:35.168Z,2.03
2023-10-23T01:09:04.714Z,2.03
2023-10-23T01:11:32.910Z,2.60
2023-10-23T01:14:01.036Z,2.47
2023-10-23T01:16:29.170Z,1.97
2023-10-23T01:18:57.016Z,2.10
2023-10-23T01:21:24.997Z,2.57
2023-10-23T01:23:54.054Z,2.40
2023-10-23T01:26:24.039Z,2.17
2023-10-23T01:28:51.979Z,2.10
2023-10-23T01:31:19.958Z,2.47
2023-10-23T01:33:48.315Z,2.30
2023-10-23T01:36:16.220Z,2.47
2023-10-23T01:38:45.250Z,2.23
2023-10-23T01:41:13.116Z,2.23
2023-10-23T01:43:42.403Z,2.30
2023-10-23T01:46:10.399Z,2.40
2023-10-23T01:48:39.744Z,2.87
2023-10-23T01:51:07.664Z,2.30
2023-10-23T01:53:35.535Z,2.80
2023-10-23T01:56:09.035Z,1.93
2023-10-23T01:58:37.039Z,2.00
2023-10-23T02:01:06.451Z,2.47
2023-10-23T02:03:34.541Z,2.17
2023-10-23T02:06:03.208Z,3.20
2023-10-23T02:08:31.402Z,2.43
2023-10-23T02:10:59.309Z,3.00
2023-10-23T02:13:27.215Z,2.57
2023-10-23T02:15:55.394Z,2.60
2023-10-23T02:18:24.660Z,2.93
2023-10-23T02:20:52.740Z,2.53
2023-10-23T02:23:20.715Z,3.17
2023-10-23T02:25:48.604Z,3.17
2023-10-23T02:28:17.530Z,3.10
2023-10-23T02:30:46.597Z,3.27
2023-10-23T02:33:14.487Z,3.20
2023-10-23T02:35:44.768Z,2.80
2023-10-23T02:38:12.609Z,2.67
2023-10-23T02:40:40.620Z,3.40
2023-10-23T02:43:08.607Z,3.97
2023-10-23T02:45:36.560Z,3.43
2023-10-23T02:48:04.786Z,3.43
2023-10-23T02:50:32.748Z,3.10
2023-10-23T02:53:02.088Z,3.13
2023-10-23T02:55:29.988Z,3.37
2023-10-23T02:57:57.904Z,3.87
2023-10-23T03:00:26.204Z,3.33
2023-10-23T03:02:55.069Z,3.07
2023-10-23T03:05:23.443Z,3.00
2023-10-23T03:07:51.630Z,3.10
2023-10-23T03:10:21.917Z,3.23
2023-10-23T03:12:50.174Z,3.20
2023-10-23T03:15:18.594Z,3.53
2023-10-23T03:17:46.692Z,2.90
2023-10-23T03:20:14.751Z,3.27
2023-10-23T03:22:43.207Z,2.67
2023-10-23T03:25:12.235Z,3.53
2023-10-23T03:27:42.554Z,3.50
2023-10-23T03:30:11.552Z,2.53
2023-10-23T03:32:39.554Z,3.03
2023-10-23T03:35:08.055Z,3.00
2023-10-23T03:37:36.921Z,2.87
2023-10-23T03:40:05.453Z,3.10
2023-10-23T03:42:33.351Z,2.97
2023-10-23T03:45:02.780Z,2.60
2023-10-23T03:47:30.692Z,3.50
2023-10-23T03:49:58.679Z,3.10
2023-10-23T03:52:26.602Z,2.83
2023-10-23T03:54:54.659Z,2.90
2023-10-23T03:57:22.541Z,2.93
2023-10-23T03:59:50.579Z,3.13
2023-10-23T04:02:19.724Z,3.67
2023-10-23T04:04:48.038Z,3.40
2023-10-23T04:07:16.067Z,2.80
2023-10-23T04:09:44.028Z,2.80
2023-10-23T04:12:11.894Z,3.17
2023-10-23T04:14:39.710Z,3.40
2023-10-23T04:17:07.682Z,3.97
2023-10-23T04:19:37.097Z,4.10
2023-10-23T04:22:05.326Z,4.10
2023-10-23T04:24:33.279Z,3.50
2023-10-23T04:27:01.162Z,3.80
2023-10-23T04:29:29.098Z,3.70
2023-10-23T04:31:57.061Z,3.23
2023-10-23T04:34:25.075Z,3.20
2023-10-23T04:36:54.382Z,3.30
2023-10-23T04:39:22.398Z,3.00
2023-10-23T04:41:50.466Z,4.07
2023-10-23T04:44:20.625Z,3.77
2023-10-23T04:46:48.918Z,4.10
2023-10-23T04:49:16.981Z,3.33
2023-10-23T04:51:44.875Z,3.73
2023-10-23T04:54:14.124Z,3.10
2023-10-23T04:56:42.652Z,3.33
2023-10-23T04:59:10.804Z,3.20
2023-10-23T05:01:38.729Z,2.60
2023-10-23T05:04:07.603Z,2.83
2023-10-23T05:06:35.914Z,3.30
2023-10-23T05:09:05.432Z,3.60
2023-10-23T05:11:35.373Z,3.10
2023-10-23T05:14:03.763Z,3.40
2023-10-23T05:16:31.713Z,3.20
2023-10-23T05:19:00.002Z,2.90
2023-10-23T05:21:28.140Z,3.57
2023-10-23T05:23:56.225Z,3.07
2023-10-23T05:26:24.313Z,3.07
2023-10-23T05:28:54.588Z,2.50
2023-10-23T05:31:22.662Z,2.70
2023-10-23T05:33:51.162Z,3.60
2023-10-23T05:36:19.327Z,3.20
2023-10-23T05:38:47.274Z,3.80
2023-10-23T05:41:15.303Z,3.60
2023-10-23T05:43:45.106Z,3.37
2023-10-23T05:46:14.486Z,3.53
2023-10-23T05:48:42.772Z,3.43
2023-10-23T05:51:10.972Z,3.33
2023-10-23T05:53:39.050Z,4.00
2023-10-23T05:56:08.694Z,3.80
2023-10-23T05:58:37.068Z,3.50
2023-10-23T06:01:09.193Z,8.97
2023-10-23T06:03:38.931Z,9.63
2023-10-23T06:06:07.425Z,4.90
2023-10-23T06:08:35.648Z,5.33
2023-10-23T06:11:04.009Z,3.83
2023-10-23T06:13:31.992Z,3.60
2023-10-23T06:16:04.194Z,3.83
2023-10-23T06:18:33.183Z,4.00
2023-10-23T06:21:04.656Z,4.10
2023-10-23T06:23:34.503Z,4.30
2023-10-23T06:26:02.772Z,4.23
2023-10-23T06:28:33.151Z,4.83
2023-10-23T06:31:06.429Z,3.90
2023-10-23T06:33:34.611Z,4.00
2023-10-23T06:36:04.757Z,4.13
2023-10-23T06:38:32.698Z,3.50
2023-10-23T06:41:05.818Z,3.67
2023-10-23T06:43:34.026Z,3.90
2023-10-23T06:46:03.130Z,4.17
2023-10-23T06:48:32.029Z,3.60
2023-10-23T06:51:01.006Z,4.27
2023-10-23T06:53:30.384Z,4.47
2023-10-23T06:55:58.555Z,4.70
2023-10-23T06:58:26.573Z,5.10
2023-10-23T07:00:54.791Z,4.67
2023-10-23T07:03:22.877Z,5.70
2023-10-23T07:05:51.049Z,6.10
2023-10-23T07:08:20.648Z,5.90
2023-10-23T07:10:49.994Z,6.03
2023-10-23T07:13:22.548Z,6.37
2023-10-23T07:15:51.620Z,5.73
2023-10-23T07:18:20.806Z,6.33
2023-10-23T07:20:57.929Z,6.07
2023-10-23T07:23:26.844Z,4.70
2023-10-23T07:26:11.685Z,5.07
2023-10-23T07:28:40.543Z,4.97
2023-10-23T07:31:09.888Z,5.77
2023-10-23T07:33:41.268Z,4.90
2023-10-23T07:36:11.659Z,4.87
2023-10-23T07:38:41.902Z,4.13
2023-10-23T07:41:11.741Z,5.10
2023-10-23T07:43:40.076Z,5.07
2023-10-23T07:46:16.417Z,5.03
2023-10-23T07:48:45.324Z,5.37
2023-10-23T07:51:13.413Z,5.40
2023-10-23T07:53:41.624Z,6.30
2023-10-23T07:56:12.725Z,5.50
2023-10-23T07:58:40.870Z,4.73
2023-10-23T08:01:10.849Z,5.43
2023-10-23T08:03:39.748Z,6.37
2023-10-23T08:06:10.335Z,6.30
2023-10-23T08:08:39.874Z,5.77
2023-10-23T08:11:09.555Z,6.20
2023-10-23T08:13:39.648Z,6.10
2023-10-23T08:16:08.300Z,5.47
2023-10-23T08:18:40.674Z,5.50
2023-10-23T08:21:11.520Z,5.37
2023-10-23T08:23:39.836Z,5.00
2023-10-23T08:26:07.865Z,5.43
2023-10-23T08:28:58.393Z,5.83
2023-10-23T08:31:38.635Z,5.10
2023-10-23T08:34:08.631Z,5.83
2023-10-23T08:36:37.360Z,5.50
2023-10-23T08:39:05.802Z,5.60
2023-10-23T08:41:35.275Z,6.00
2023-10-23T08:44:04.332Z,5.77
2023-10-23T08:46:36.019Z,5.80
2023-10-23T08:49:05.253Z,5.63
2023-10-23T08:51:33.609Z,5.03
2023-10-23T08:54:11.656Z,5.40
2023-10-23T08:56:43.793Z,4.67
2023-10-23T08:59:14.029Z,5.53
2023-10-23T09:01:43.658Z,6.03
2023-10-23T09:04:13.249Z,5.60
2023-10-23T09:06:41.919Z,5.10
2023-10-23T09:09:10.402Z,5.43
2023-10-23T09:11:44.733Z,7.20
2023-10-23T09:14:22.891Z,4.83
2023-10-23T09:16:53.427Z,5.50
2023-10-23T09:19:29.338Z,4.90
2023-10-23T09:21:58.829Z,5.80
2023-10-23T09:24:27.652Z,5.37
2023-10-23T09:26:55.722Z,4.67
2023-10-23T09:29:25.395Z,5.00
2023-10-23T09:31:56.103Z,4.53
2023-10-23T09:34:24.455Z,6.93
2023-10-23T09:36:53.952Z,4.23
2023-10-23T09:39:23.857Z,4.00
2023-10-23T09:41:53.436Z,5.17
2023-10-23T09:44:21.561Z,5.30
2023-10-23T09:46:51.592Z,4.50
2023-10-23T09:49:23.198Z,4.37
2023-10-23T09:51:52.488Z,5.00
2023-10-23T09:54:21.982Z,4.60
2023-10-23T09:56:51.801Z,5.00
2023-10-23T09:59:21.775Z,4.30
2023-10-23T10:01:52.028Z,5.03
2023-10-23T10:04:27.309Z,4.80
2023-10-23T10:06:57.820Z,5.37
2023-10-23T10:09:27.096Z,4.80
2023-10-23T10:11:57.181Z,6.97
2023-10-23T10:14:27.176Z,4.47
2023-10-23T10:16:57.706Z,4.07
2023-10-23T10:19:28.319Z,4.10
2023-10-23T10:22:05.857Z,3.20
2023-10-23T10:24:35.970Z,3.30
2023-10-23T10:27:05.399Z,4.30
2023-10-23T10:29:33.674Z,3.80
2023-10-23T10:32:10.875Z,3.90
2023-10-23T10:34:56.042Z,3.77
2023-10-23T10:37:28.371Z,4.20
2023-10-23T10:40:13.300Z,3.80
2023-10-23T10:42:41.993Z,4.03
2023-10-23T10:45:18.216Z,4.10
2023-10-23T10:47:50.766Z,3.27
2023-10-23T10:50:45.307Z,3.90
2023-10-23T10:53:16.601Z,3.87
2023-10-23T10:55:46.656Z,3.30
2023-10-23T10:58:14.740Z,3.50
2023-10-23T11:00:42.843Z,3.60
2023-10-23T11:03:11.167Z,2.90
2023-10-23T11:05:41.192Z,3.17
2023-10-23T11:08:10.608Z,3.43
2023-10-23T11:10:40.901Z,2.80
2023-10-23T11:13:09.325Z,2.77
2023-10-23T11:15:37.567Z,2.30
2023-10-23T11:18:06.185Z,2.77
2023-10-23T11:20:34.226Z,2.60
2023-10-23T11:23:02.446Z,2.40
2023-10-23T11:25:32.142Z,2.67
2023-10-23T11:28:00.222Z,2.37
2023-10-23T11:30:30.078Z,2.20
2023-10-23T11:32:58.719Z,2.30
2023-10-23T11:35:34.305Z,2.67
2023-10-23T11:38:05.431Z,2.83
2023-10-23T11:40:38.228Z,2.90
2023-10-23T11:43:10.436Z,3.00
2023-10-23T11:45:39.199Z,2.50
2023-10-23T11:48:07.693Z,2.77
2023-10-23T11:50:37.303Z,2.67
2023-10-23T11:53:05.922Z,3.00
2023-10-23T11:55:37.710Z,2.80
2023-10-23T11:58:06.160Z,3.17
2023-10-23T12:00:35.553Z,3.43
2023-10-23T12:03:05.768Z,2.43
2023-10-23T12:05:34.155Z,2.50
2023-10-23T12:08:02.247Z,2.50
2023-10-23T12:10:30.567Z,2.40
2023-10-23T12:13:00.408Z,2.60
2023-10-23T12:15:29.221Z,2.90
2023-10-23T12:18:04.385Z,2.60
2023-10-23T12:20:33.085Z,2.77
2023-10-23T12:23:01.289Z,2.97
2023-10-23T12:25:29.364Z,2.67
2023-10-23T12:27:59.258Z,3.07
2023-10-23T12:30:28.987Z,2.10
2023-10-23T12:33:19.291Z,2.30
2023-10-23T12:35:46.229Z,2.57
2023-10-23T12:38:14.425Z,2.77
2023-10-23T12:40:44.327Z,2.93
2023-10-23T12:43:14.153Z,3.47
2023-10-23T12:45:43.144Z,3.00
2023-10-23T12:48:11.762Z,3.03
2023-10-23T12:50:40.317Z,3.27
2023-10-23T12:53:09.824Z,3.20
2023-10-23T12:55:37.851Z,2.80
2023-10-23T12:58:06.383Z,2.73
2023-10-23T13:00:35.782Z,2.80
2023-10-23T13:03:03.942Z,2.33
2023-10-23T13:05:32.123Z,2.83
2023-10-23T13:08:00.056Z,2.60
2023-10-23T13:10:28.002Z,2.70
2023-10-23T13:12:56.084Z,2.40
2023-10-23T13:15:24.046Z,3.50
2023-10-23T13:17:57.308Z,2.83
2023-10-23T13:21:31.187Z,3.10
2023-10-23T13:23:13.333Z,3.20
2023-10-23T13:25:41.949Z,3.13
2023-10-23T13:28:10.168Z,3.10
2023-10-23T13:30:38.721Z,3.93
2023-10-23T13:33:08.238Z,3.28
2023-10-23T13:35:37.147Z,3.87
2023-10-23T13:38:05.303Z,3.57
2023-10-23T13:40:34.538Z,3.70
2023-10-23T13:43:02.760Z,7.80
2023-10-23T13:45:30.783Z,3.30
2023-10-23T13:47:58.861Z,3.93
2023-10-23T13:50:28.413Z,3.93
2023-10-23T13:52:56.354Z,3.57
2023-10-23T13:55:24.549Z,3.83
2023-10-23T13:57:52.539Z,3.33
2023-10-23T14:00:20.654Z,4.17
2023-10-23T14:02:48.785Z,3.77
2023-10-23T14:05:17.662Z,3.97
2023-10-23T14:07:47.175Z,3.97
2023-10-23T14:10:20.925Z,3.97
2023-10-23T14:12:52.460Z,3.20
2023-10-23T14:15:20.853Z,2.80
2023-10-23T14:17:49.006Z,3.53
2023-10-23T14:20:17.096Z,3.70
2023-10-23T14:22:46.376Z,3.50
2023-10-23T14:25:14.242Z,3.30
2023-10-23T14:27:42.676Z,3.50
2023-10-23T14:30:11.083Z,3.83
2023-10-23T14:32:40.171Z,4.03
2023-10-23T14:35:08.765Z,3.17
2023-10-23T14:37:36.892Z,3.40
2023-10-23T14:40:11.023Z,3.40
2023-10-23T14:42:39.448Z,3.80
2023-10-23T14:45:08.693Z,3.47
2023-10-23T14:47:39.364Z,3.10
2023-10-23T14:50:08.490Z,3.00
2023-10-23T14:52:36.823Z,3.83
2023-10-23T14:55:06.021Z,3.03
2023-10-23T14:57:35.317Z,3.90
2023-10-23T15:00:03.646Z,3.97
2023-10-23T15:02:31.599Z,4.20
2023-10-23T15:05:00.801Z,4.00
2023-10-23T15:07:28.803Z,4.10
2023-10-23T15:09:56.876Z,4.37
2023-10-23T15:12:27.108Z,4.47
2023-10-23T15:14:57.833Z,4.20
2023-10-23T15:17:26.328Z,4.03
2023-10-23T15:19:57.549Z,3.50
2023-10-23T15:22:25.694Z,4.00
2023-10-23T15:24:53.793Z,4.30
2023-10-23T15:27:21.703Z,3.77
2023-10-23T15:29:49.714Z,4.57
2023-10-23T15:32:18.959Z,4.13
2023-10-23T15:34:47.798Z,4.53
2023-10-23T15:37:17.105Z,4.33
2023-10-23T15:39:46.873Z,3.87
2023-10-23T15:42:14.983Z,4.47
2023-10-23T15:44:44.685Z,3.50
2023-10-23T15:47:13.435Z,4.13
2023-10-23T15:49:42.952Z,5.10
2023-10-23T15:52:10.948Z,6.23
2023-10-23T15:54:39.092Z,5.90
2023-10-23T15:57:07.135Z,6.77
2023-10-23T15:59:35.131Z,6.20
2023-10-23T16:02:03.174Z,5.40
2023-10-23T16:04:31.656Z,4.80
2023-10-23T16:07:01.123Z,4.20
2023-10-23T16:09:29.316Z,5.63
2023-10-23T16:11:57.299Z,5.30
2023-10-23T16:14:53.583Z,4.87
2023-10-23T16:17:22.253Z,5.10
2023-10-23T16:19:50.237Z,5.73
2023-10-23T16:22:20.873Z,5.37
2023-10-23T16:24:48.750Z,5.00
2023-10-23T16:27:16.913Z,5.83
2023-10-23T16:29:46.333Z,5.80
2023-10-23T16:32:17.656Z,4.90
2023-10-23T16:34:45.646Z,5.67
2023-10-23T16:37:13.501Z,6.23
2023-10-23T16:39:42.959Z,6.53
2023-10-23T16:42:11.246Z,6.20
2023-10-23T16:44:54.808Z,6.33
2023-10-23T16:47:24.368Z,6.83
2023-10-23T16:49:53.584Z,12.70
2023-10-23T16:52:21.781Z,14.90
2023-10-23T16:54:51.022Z,13.47
2023-10-23T16:57:19.073Z,13.70
2023-10-23T16:59:49.291Z,11.03
2023-10-23T17:02:17.254Z,9.97
2023-10-23T17:04:45.777Z,9.97
2023-10-23T17:07:14.629Z,6.53
2023-10-23T17:09:42.498Z,6.37
2023-10-23T17:12:12.230Z,5.90
2023-10-23T17:14:41.270Z,5.40
2023-10-23T17:17:10.265Z,4.90
2023-10-23T17:19:39.126Z,5.50
2023-10-23T17:22:07.175Z,5.27
2023-10-23T17:24:36.333Z,5.40
2023-10-23T17:27:04.680Z,5.00
2023-10-23T17:29:33.962Z,5.07
2023-10-23T17:32:03.736Z,5.87
2023-10-23T17:34:31.902Z,5.27
2023-10-23T17:36:59.845Z,5.23
2023-10-23T17:39:27.709Z,4.77
2023-10-23T17:41:55.558Z,4.93
2023-10-23T17:44:24.227Z,5.03
2023-10-23T17:46:54.711Z,4.57
2023-10-23T17:49:23.953Z,4.63
2023-10-23T17:51:52.513Z,4.80
2023-10-23T17:54:20.697Z,5.30
2023-10-23T17:56:48.615Z,5.03
2023-10-23T17:59:16.598Z,5.10
2023-10-23T18:01:44.778Z,6.00
2023-10-23T18:04:14.176Z,4.83
2023-10-23T18:06:42.105Z,5.40
2023-10-23T18:09:10.419Z,5.90
2023-10-23T18:11:41.791Z,4.93
2023-10-23T18:14:12.520Z,4.57
2023-10-23T18:16:40.831Z,5.23
2023-10-23T18:19:14.342Z,5.60
2023-10-23T18:21:45.249Z,5.00
2023-10-23T18:24:14.415Z,5.13
2023-10-23T18:26:42.327Z,5.60
2023-10-23T18:29:10.403Z,4.90
2023-10-23T18:31:38.427Z,5.10
2023-10-23T18:34:07.245Z,5.30
2023-10-23T18:36:37.489Z,5.20
2023-10-23T18:39:07.954Z,5.70
2023-10-23T18:41:35.946Z,5.13
2023-10-23T18:44:04.137Z,5.63
2023-10-23T18:46:32.474Z,6.10
2023-10-23T18:49:00.501Z,6.30
2023-10-23T18:51:28.978Z,6.90
2023-10-23T18:53:56.944Z,6.83
2023-10-23T18:56:26.396Z,6.40
2023-10-23T18:58:54.513Z,6.23
2023-10-23T19:01:22.486Z,7.20
2023-10-23T19:03:50.621Z,7.03
2023-10-23T19:06:18.722Z,5.73
2023-10-23T19:08:49.114Z,5.90
2023-10-23T19:11:18.356Z,7.00
2023-10-23T19:13:48.054Z,6.90
2023-10-23T19:16:16.071Z,7.07
2023-10-23T19:18:44.252Z,8.07
2023-10-23T19:21:13.327Z,8.70
2023-10-23T19:23:43.187Z,8.00
2023-10-23T19:26:11.631Z,8.60
2023-10-23T19:28:40.111Z,7.27
2023-10-23T19:31:17.751Z,8.30
2023-10-23T19:33:47.056Z,7.53
2023-10-23T19:36:16.243Z,8.13
2023-10-23T19:38:45.077Z,8.03
2023-10-23T19:41:15.938Z,7.80
2023-10-23T19:43:47.430Z,7.47
2023-10-23T19:46:17.733Z,7.07
2023-10-23T19:48:47.159Z,7.27
2023-10-23T19:51:16.524Z,7.30
2023-10-23T19:53:46.808Z,7.43
2023-10-23T19:56:27.953Z,6.37
2023-10-23T19:58:59.991Z,6.20
2023-10-23T20:01:29.849Z,7.90
2023-10-23T20:03:57.883Z,7.00
2023-10-23T20:06:26.522Z,7.00
2023-10-23T20:08:54.515Z,6.20
2023-10-23T20:11:22.904Z,6.77
2023-10-23T20:13:50.835Z,6.90
2023-10-23T20:16:18.971Z,5.23
2023-10-23T20:18:48.256Z,5.53
2023-10-23T20:21:16.341Z,6.13
2023-10-23T20:23:44.272Z,5.37
2023-10-23T20:26:16.720Z,6.03
2023-10-23T20:28:45.272Z,5.90
2023-10-23T20:31:18.679Z,5.70
2023-10-23T20:33:50.548Z,5.77
2023-10-23T20:36:20.124Z,5.40
2023-10-23T20:38:48.508Z,6.43
2023-10-23T20:41:17.313Z,5.37
2023-10-23T20:43:46.909Z,5.83
2023-10-23T20:46:15.144Z,5.20
2023-10-23T20:48:43.172Z,5.47
2023-10-23T20:51:12.683Z,5.47
2023-10-23T20:53:40.580Z,6.07
2023-10-23T20:56:09.355Z,6.00
2023-10-23T20:58:37.687Z,6.90
2023-10-23T21:01:06.959Z,6.53
2023-10-23T21:03:36.668Z,6.50
2023-10-23T21:06:06.637Z,6.67
2023-10-23T21:08:38.055Z,6.53
2023-10-23T21:11:06.443Z,7.17
2023-10-23T21:13:34.718Z,6.47
2023-10-23T21:16:03.146Z,6.27
2023-10-23T21:18:31.225Z,6.40
2023-10-23T21:20:59.186Z,5.73
2023-10-23T21:23:27.123Z,5.70
2023-10-23T21:25:56.362Z,5.80
2023-10-23T21:28:26.943Z,7.70
2023-10-23T21:30:55.405Z,5.67
2023-10-23T21:33:23.460Z,5.40
2023-10-23T21:35:52.610Z,5.67
2023-10-23T21:38:21.055Z,6.30
2023-10-23T21:40:49.939Z,6.13
2023-10-23T21:43:19.874Z,7.00
2023-10-23T21:45:51.671Z,6.20
2023-10-23T21:48:24.072Z,6.30
2023-10-23T21:50:51.951Z,5.80
2023-10-23T21:53:20.693Z,6.27
2023-10-23T21:55:49.513Z,6.37
2023-10-23T21:58:19.536Z,6.40
2023-10-23T22:00:48.108Z,6.77
2023-10-23T22:03:17.942Z,5.50
2023-10-23T22:05:50.546Z,6.50
2023-10-23T22:08:18.858Z,6.20
2023-10-23T22:10:47.528Z,6.93
2023-10-23T22:13:15.967Z,6.30
2023-10-23T22:15:45.702Z,7.17
2023-10-23T22:18:13.754Z,6.70
2023-10-23T22:20:42.856Z,7.20
2023-10-23T22:23:10.786Z,7.00
2023-10-23T22:25:38.753Z,8.03
2023-10-23T22:28:06.943Z,8.10
2023-10-23T22:30:34.919Z,7.40
2023-10-23T22:33:14.483Z,8.77
2023-10-23T22:35:43.172Z,7.23
2023-10-23T22:38:13.966Z,7.70
2023-10-23T22:40:43.062Z,7.87
2023-10-23T22:43:11.080Z,8.23
2023-10-23T22:45:55.319Z,7.83
2023-10-23T22:48:28.731Z,8.70
2023-10-23T22:50:57.186Z,8.43
2023-10-23T22:53:25.703Z,9.00
2023-10-23T22:55:56.052Z,8.40
2023-10-23T22:58:30.073Z,9.17
2023-10-23T23:00:58.990Z,8.17
2023-10-23T23:03:29.480Z,9.17
2023-10-23T23:06:05.133Z,8.07
2023-10-23T23:08:38.825Z,8.40
2023-10-23T23:11:07.480Z,7.77
2023-10-23T23:13:36.064Z,8.57
2023-10-23T23:16:06.234Z,7.47
2023-10-23T23:18:39.472Z,7.00
2023-10-23T23:21:09.363Z,8.60
2023-10-23T23:23:37.731Z,8.50
2023-10-23T23:26:06.031Z,7.90
2023-10-23T23:28:34.567Z,7.97
2023-10-23T23:31:03.247Z,8.30
2023-10-23T23:33:31.224Z,8.23
2023-10-23T23:36:02.415Z,8.23
2023-10-23T23:38:30.344Z,7.93
2023-10-23T23:40:58.446Z,8.10
2023-10-23T23:43:26.840Z,7.83
2023-10-23T23:45:54.944Z,8.50
2023-10-23T23:48:23.054Z,8.47
2023-10-23T23:50:50.961Z,8.97
2023-10-23T23:53:20.222Z,8.83
2023-10-23T23:55:48.338Z,7.87
2023-10-23T23:58:16.198Z,7.90
